Time;durP1;ratioP1;P1;durP2;ratioP2;P2;SDS_P1;SDS_P2;PMS_P1;PMS_P2;Temp;Humidity;BMP_temperature;BMP_pressure;BME280_temperature;BME280_humidity;BME280_pressure;Samples;Min_cycle;Max_cycle;Signal;HPM_P1;HPM_P2
2024/02/15 00:00:30;;;;;;;3.47;1.77;;;;;;;9.78;100.00;101219.78;5033598;28;20854;-71
2024/02/15 00:02:58;;;;;;;4.07;2.10;;;;;;;9.83;100.00;101216.22;5033558;28;20474;-71
2024/02/15 00:05:25;;;;;;;2.87;1.47;;;;;;;9.82;100.00;101215.38;5033941;28;20927;-71
2024/02/15 00:07:52;;;;;;;3.57;1.63;;;;;;;9.84;100.00;101220.53;5033842;28;20443;-71
2024/02/15 00:10:21;;;;;;;3.53;1.30;;;;;;;9.86;100.00;101213.75;5033841;28;20439;-71
2024/02/15 00:12:50;;;;;;;3.27;1.60;;;;;;;9.87;100.00;101214.53;5046739;22;20502;-71
2024/02/15 00:15:17;;;;;;;2.97;1.70;;;;;;;9.84;100.00;101213.22;5033439;28;20454;-71
2024/02/15 00:17:43;;;;;;;3.10;1.47;;;;;;;9.86;100.00;101219.16;5033775;28;20467;-71
2024/02/15 00:20:11;;;;;;;2.90;1.43;;;;;;;9.85;100.00;101219.44;5033070;28;21022;-71
2024/02/15 00:22:41;;;;;;;4.33;2.00;;;;;;;9.85;100.00;101222.16;5033568;28;20546;-71
2024/02/15 00:25:08;;;;;;;5.47;2.00;;;;;;;9.88;100.00;101223.50;5033817;28;20836;-72
2024/02/15 00:27:35;;;;;;;3.80;1.97;;;;;;;9.88;100.00;101220.78;5033397;28;20521;-71
2024/02/15 00:30:02;;;;;;;3.33;1.80;;;;;;;9.88;100.00;101213.47;5037595;28;20505;-71
2024/02/15 00:32:28;;;;;;;4.10;2.17;;;;;;;9.90;100.00;101213.19;5037525;28;20494;-71
2024/02/15 00:34:55;;;;;;;3.17;1.90;;;;;;;9.92;100.00;101213.72;5037265;28;20473;-71
2024/02/15 00:37:21;;;;;;;4.67;2.33;;;;;;;9.91;100.00;101207.50;5037796;28;20435;-71
2024/02/15 00:39:49;;;;;;;5.87;1.47;;;;;;;9.93;100.00;101213.44;5037492;28;20463;-71
2024/02/15 00:42:16;;;;;;;3.13;1.67;;;;;;;9.95;100.00;101218.56;5037070;28;20513;-71
2024/02/15 00:44:43;;;;;;;5.50;2.40;;;;;;;9.95;100.00;101219.38;5037078;28;20446;-71
2024/02/15 00:47:11;;;;;;;4.30;2.17;;;;;;;9.97;100.00;101211.00;5037105;28;20569;-71
2024/02/15 00:49:37;;;;;;;3.53;2.20;;;;;;;9.97;100.00;101211.00;5036914;28;20482;-71
2024/02/15 00:52:05;;;;;;;2.73;1.63;;;;;;;9.94;100.00;101214.25;5036949;28;20477;-71
2024/02/15 00:54:31;;;;;;;3.60;1.40;;;;;;;9.90;100.00;101216.69;5036952;28;20521;-71
2024/02/15 00:56:59;;;;;;;4.17;2.20;;;;;;;9.91;100.00;101221.03;5036576;28;20479;-71
2024/02/15 00:59:26;;;;;;;4.10;2.43;;;;;;;9.92;100.00;101221.84;5036869;28;20516;-71
2024/02/15 01:01:53;;;;;;;5.30;2.67;;;;;;;9.92;100.00;101214.53;5036715;28;20464;-71
2024/02/15 01:04:19;;;;;;;4.33;2.40;;;;;;;9.91;100.00;101215.59;5036514;28;20443;-71
2024/02/15 01:06:46;;;;;;;4.40;1.83;;;;;;;9.96;100.00;101214.75;5036323;28;20972;-71
2024/02/15 01:09:14;;;;;;;5.13;2.97;;;;;;;9.96;100.00;101212.88;5036750;28;20489;-71
2024/02/15 01:11:40;;;;;;;4.83;2.13;;;;;;;9.92;100.00;101219.94;5036409;28;20450;-71
2024/02/15 01:14:09;;;;;;;3.73;1.97;;;;;;;9.94;100.00;101225.06;5036903;28;20467;-71
2024/02/15 01:16:36;;;;;;;5.40;2.70;;;;;;;9.91;100.00;101217.50;5036529;28;20505;-71
2024/02/15 01:19:03;;;;;;;4.83;1.93;;;;;;;9.92;100.00;101211.84;5036595;28;20512;-71
2024/02/15 01:21:32;;;;;;;3.60;2.23;;;;;;;9.91;100.00;101209.38;5036653;28;20445;-71
2024/02/15 01:24:00;;;;;;;4.33;2.40;;;;;;;9.93;100.00;101205.31;5036160;28;20820;-71
2024/02/15 01:26:27;;;;;;;4.43;2.40;;;;;;;9.91;100.00;101215.59;5036337;28;20446;-70
2024/02/15 01:28:53;;;;;;;3.23;1.80;;;;;;;9.98;100.00;101213.41;5036926;28;20537;-71
2024/02/15 01:31:22;;;;;;;4.87;2.03;;;;;;;9.98;100.00;101215.31;5036563;28;20450;-71
2024/02/15 01:33:49;;;;;;;4.77;2.13;;;;;;;9.97;100.00;101214.50;5036139;28;20915;-71
2024/02/15 01:36:16;;;;;;;4.70;2.67;;;;;;;9.94;100.00;101212.34;5036334;28;20435;-71
2024/02/15 01:38:43;;;;;;;3.07;1.60;;;;;;;9.97;100.00;101211.78;5035767;28;20431;-71
2024/02/15 01:41:09;;;;;;;4.67;2.30;;;;;;;9.98;100.00;101208.00;5035267;28;20881;-71
2024/02/15 01:43:36;;;;;;;4.77;2.87;;;;;;;9.97;100.00;101208.28;5035984;28;20463;-71
2024/02/15 01:46:09;;;;;;;3.70;2.30;;;;;;;9.97;100.00;101211.00;5035958;28;20443;-71
2024/02/15 01:48:37;;;;;;;4.60;2.00;;;;;;;9.97;100.00;101211.00;5036253;28;20424;-71
2024/02/15 01:51:05;;;;;;;4.23;1.77;;;;;;;9.95;100.00;101208.53;5035874;28;20533;-71
2024/02/15 01:53:32;;;;;;;4.00;2.00;;;;;;;9.95;100.00;101199.63;5035766;28;20469;-71
2024/02/15 01:56:00;;;;;;;5.97;2.10;;;;;;;9.99;100.00;101203.38;5036154;28;20474;-71
2024/02/15 01:58:28;;;;;;;2.73;1.60;;;;;;;10.02;100.00;101197.41;5035973;28;20471;-71
2024/02/15 02:00:57;;;;;;;3.63;1.97;;;;;;;10.00;100.00;101199.56;5035385;28;20893;-71
2024/02/15 02:03:24;;;;;;;4.23;2.10;;;;;;;10.00;100.00;101189.56;5035295;28;20467;-71
2024/02/15 02:05:52;;;;;;;3.73;2.37;;;;;;;10.00;100.00;101191.47;5035274;28;21002;-71
2024/02/15 02:08:18;;;;;;;6.93;2.90;;;;;;;10.03;100.00;101189.00;5035750;28;20445;-71
2024/02/15 02:10:45;;;;;;;4.93;2.27;;;;;;;10.01;100.00;101193.09;5036137;28;20918;-71
2024/02/15 02:13:12;;;;;;;4.33;2.10;;;;;;;10.02;100.00;101192.00;5035371;28;20482;-71
2024/02/15 02:15:39;;;;;;;3.70;1.70;;;;;;;10.05;100.00;101189.53;5035791;28;20522;-71
2024/02/15 02:18:08;;;;;;;5.37;2.77;;;;;;;10.05;100.00;101196.84;5035861;28;20439;-71
2024/02/15 02:20:35;;;;;;;3.97;1.93;;;;;;;10.03;100.00;101196.31;5035636;28;20439;-71
2024/02/15 02:23:08;;;;;;;3.37;1.60;;;;;;;10.08;100.00;101185.44;5035464;28;20463;-71
2024/02/15 02:25:36;;;;;;;3.47;2.10;;;;;;;10.06;100.00;101184.94;5035261;28;20510;-71
2024/02/15 02:28:03;;;;;;;3.70;2.00;;;;;;;10.13;100.00;101188.13;5035204;28;20811;-72
2024/02/15 02:30:30;;;;;;;4.17;2.27;;;;;;;10.11;100.00;101191.13;5035247;28;20590;-71
2024/02/15 02:32:58;;;;;;;3.27;1.93;;;;;;;10.08;100.00;101190.88;5035054;28;20462;-72
2024/02/15 02:35:26;;;;;;;4.50;2.40;;;;;;;10.07;100.00;101181.13;5035386;28;20435;-71
2024/02/15 02:37:54;;;;;;;3.70;2.07;;;;;;;10.07;100.00;101183.84;5035322;28;20527;-71
2024/02/15 02:40:20;;;;;;;4.47;2.70;;;;;;;10.04;100.00;101187.09;5035279;28;20435;-71
2024/02/15 02:42:51;;;;;;;2.90;1.63;;;;;;;10.09;100.00;101200.59;5034468;28;20468;-71
2024/02/15 02:45:19;;;;;;;4.30;2.30;;;;;;;10.12;100.00;101189.22;5034920;28;20514;-72
2024/02/15 02:47:46;;;;;;;3.00;1.60;;;;;;;10.13;100.00;101184.59;5034841;28;20526;-71
2024/02/15 02:50:13;;;;;;;5.97;2.90;;;;;;;10.18;100.00;101188.09;5034734;28;20487;-71
2024/02/15 02:52:40;;;;;;;3.93;2.03;;;;;;;10.18;100.00;101184.56;5033363;28;20461;-71
2024/02/15 02:55:08;;;;;;;5.07;2.57;;;;;;;10.17;100.00;101185.66;5034791;28;20518;-71
2024/02/15 02:57:37;;;;;;;4.30;2.53;;;;;;;10.18;100.00;101189.97;5034972;28;20453;-71
2024/02/15 03:00:08;;;;;;;4.50;2.40;;;;;;;10.19;100.00;101197.03;5034540;28;20436;-71
2024/02/15 03:02:36;;;;;;;4.27;2.27;;;;;;;10.13;100.00;101188.13;5034409;28;20462;-71
2024/02/15 03:05:04;;;;;;;6.37;2.67;;;;;;;10.14;100.00;101194.31;5034555;28;20958;-71
2024/02/15 03:07:33;;;;;;;4.97;2.37;;;;;;;10.16;100.00;101189.47;5034465;28;20939;-71
2024/02/15 03:10:00;;;;;;;5.83;3.27;;;;;;;10.14;100.00;101188.91;5034317;28;20577;-72
2024/02/15 03:12:29;;;;;;;5.70;2.80;;;;;;;10.08;100.00;101190.88;5034163;28;20506;-72
2024/02/15 03:14:56;;;;;;;7.20;2.90;;;;;;;10.10;100.00;101188.69;5034344;28;20451;-72
2024/02/15 03:17:24;;;;;;;7.40;2.63;;;;;;;10.15;100.00;101195.97;5034742;28;20439;-72
2024/02/15 03:19:52;;;;;;;5.10;2.10;;;;;;;10.14;100.00;101194.31;5034176;28;20443;-72
2024/02/15 03:22:19;;;;;;;5.43;3.03;;;;;;;10.11;100.00;101185.69;5034125;28;20481;-71
2024/02/15 03:24:45;;;;;;;6.33;3.10;;;;;;;10.15;100.00;101190.56;5034497;28;20530;-72
2024/02/15 03:27:12;;;;;;;5.30;2.77;;;;;;;10.15;100.00;101191.38;5034499;28;20530;-72
2024/02/15 03:29:39;;;;;;;5.27;2.50;;;;;;;10.15;100.00;101194.06;5034007;28;20509;-72
2024/02/15 03:32:06;;;;;;;3.87;1.53;;;;;;;10.10;100.00;101189.50;5034330;28;20467;-72
2024/02/15 03:34:34;;;;;;;4.97;2.10;;;;;;;10.12;100.00;101191.91;5034619;28;20522;-71
2024/02/15 03:37:03;;;;;;;3.53;2.10;;;;;;;10.15;100.00;101191.38;5033736;28;20457;-72
2024/02/15 03:39:30;;;;;;;4.37;2.53;;;;;;;10.16;100.00;101198.38;5033955;28;20440;-72
2024/02/15 03:41:58;;;;;;;6.13;2.53;;;;;;;10.17;100.00;101191.88;5034104;28;20495;-72
2024/02/15 03:44:25;;;;;;;3.73;2.03;;;;;;;10.18;100.00;101196.22;5034047;28;20447;-72
2024/02/15 03:46:53;;;;;;;5.33;2.63;;;;;;;10.23;100.00;101193.47;5034210;28;20439;-72
2024/02/15 03:49:19;;;;;;;4.40;2.63;;;;;;;10.17;100.00;101186.47;5034088;28;20532;-72
2024/02/15 03:51:49;;;;;;;7.40;2.80;;;;;;;10.20;100.00;101195.94;5033949;28;20487;-71
2024/02/15 03:54:15;;;;;;;4.17;2.23;;;;;;;10.16;100.00;101198.38;5033674;28;20475;-71
2024/02/15 03:56:52;;;;;;;3.70;1.87;;;;;;;10.18;100.00;101189.97;5033967;28;20482;-70
2024/02/15 03:59:21;;;;;;;4.17;2.57;;;;;;;10.18;100.00;101192.69;5033749;28;20457;-72
2024/02/15 04:01:48;;;;;;;5.03;2.20;;;;;;;10.21;100.00;101194.81;5033662;28;20474;-72
2024/02/15 04:04:15;;;;;;;3.10;1.53;;;;;;;10.19;100.00;101191.59;5033019;28;20530;-72
2024/02/15 04:06:42;;;;;;;5.80;1.97;;;;;;;10.19;100.00;101194.31;5033492;28;20447;-72
2024/02/15 04:09:11;;;;;;;4.93;2.63;;;;;;;10.23;100.00;101193.47;5033098;28;20486;-72
2024/02/15 04:11:38;;;;;;;5.30;2.03;;;;;;;10.13;100.00;101193.53;5033482;28;20447;-72
2024/02/15 04:14:05;;;;;;;7.20;2.27;;;;;;;10.15;100.00;101196.78;5033913;28;20426;-72
2024/02/15 04:16:33;;;;;;;4.13;2.20;;;;;;;10.09;100.00;101190.59;5033433;28;20526;-72
2024/02/15 04:18:59;;;;;;;3.70;2.23;;;;;;;10.13;100.00;101198.94;5033084;28;20447;-72
2024/02/15 04:21:27;;;;;;;3.77;2.30;;;;;;;10.21;100.00;101200.25;5032987;28;21050;-72
2024/02/15 04:23:54;;;;;;;4.07;2.10;;;;;;;10.21;100.00;101192.91;5033045;28;21007;-72
2024/02/15 04:26:26;;;;;;;4.73;1.87;;;;;;;10.24;100.00;101199.69;5033164;28;20439;-72
2024/02/15 04:28:53;;;;;;;5.47;2.50;;;;;;;10.25;100.00;101195.91;5033047;28;20923;-72
2024/02/15 04:31:21;;;;;;;4.63;2.80;;;;;;;10.27;100.00;101193.72;5033251;28;20483;-72
2024/02/15 04:33:48;;;;;;;4.53;2.37;;;;;;;10.29;100.00;101196.97;5032805;28;20858;-72
2024/02/15 04:36:22;;;;;;;4.33;2.30;;;;;;;10.30;100.00;101191.25;5033240;28;20443;-72
2024/02/15 04:38:50;;;;;;;6.70;3.57;;;;;;;10.33;100.00;101196.09;5032987;28;20810;-72
2024/02/15 04:41:19;;;;;;;4.97;1.90;;;;;;;10.32;100.00;101196.41;5033305;28;20821;-72
2024/02/15 04:43:47;;;;;;;4.30;1.83;;;;;;;10.33;100.00;101195.31;5033845;28;20491;-72
2024/02/15 04:46:14;;;;;;;4.80;2.17;;;;;;;10.31;100.00;101190.19;5033155;28;20585;-72
2024/02/15 04:48:41;;;;;;;5.20;2.40;;;;;;;10.32;100.00;101197.22;5033137;28;20466;-73
2024/02/15 04:51:08;;;;;;;4.93;2.50;;;;;;;10.32;100.00;101193.69;5033021;28;20494;-72
2024/02/15 04:53:36;;;;;;;6.60;2.10;;;;;;;10.33;100.00;101200.72;5033020;28;20545;-72
2024/02/15 04:56:09;;;;;;;4.57;1.97;;;;;;;10.35;100.00;101196.63;5032786;28;20439;-72
2024/02/15 04:58:37;;;;;;;3.73;2.23;;;;;;;10.34;100.00;101197.72;5033093;28;20427;-72
2024/02/15 05:01:05;;;;;;;5.07;2.10;;;;;;;10.28;100.00;101193.44;5032676;28;20441;-72
2024/02/15 05:03:34;;;;;;;4.60;2.37;;;;;;;10.31;100.00;101197.47;5032901;28;20495;-72
2024/02/15 05:06:01;;;;;;;6.20;2.50;;;;;;;10.32;100.00;101204.53;5032997;28;20446;-72
2024/02/15 05:08:31;;;;;;;2.70;1.53;;;;;;;10.34;100.00;101200.44;5033307;28;20512;-72
2024/02/15 05:10:58;;;;;;;6.27;2.57;;;;;;;10.35;100.00;101201.22;5033197;28;20814;-72
2024/02/15 05:13:25;;;;;;;5.27;2.50;;;;;;;10.37;100.00;101195.56;5032798;28;20542;-72
2024/02/15 05:15:52;;;;;;;3.47;1.90;;;;;;;10.29;100.00;101196.97;5035233;28;20451;-72
2024/02/15 05:18:20;;;;;;;4.90;2.20;;;;;;;10.28;100.00;101201.56;5036481;28;20442;-72
2024/02/15 05:20:47;;;;;;;6.03;2.10;;;;;;;10.29;100.00;101203.19;5036790;28;20470;-72
2024/02/15 05:23:14;;;;;;;4.50;2.17;;;;;;;10.27;100.00;101199.13;5036692;28;20545;-72
2024/02/15 05:25:41;;;;;;;3.90;1.97;;;;;;;10.27;100.00;101205.38;5036655;28;20497;-72
2024/02/15 05:28:08;;;;;;;4.13;1.70;;;;;;;10.27;100.00;101204.53;5035958;28;20500;-72
2024/02/15 05:30:37;;;;;;;3.10;1.57;;;;;;;10.30;100.00;101209.41;5036189;28;20513;-72
2024/02/15 05:33:04;;;;;;;5.33;2.27;;;;;;;10.31;100.00;101203.72;5036133;28;20467;-72
2024/02/15 05:35:32;;;;;;;3.93;2.10;;;;;;;10.33;100.00;101206.13;5036569;28;20435;-72
2024/02/15 05:37:59;;;;;;;4.20;2.10;;;;;;;10.35;100.00;101206.66;5035474;28;21014;-72
2024/02/15 05:40:25;;;;;;;4.70;1.70;;;;;;;10.36;100.00;101211.00;5035909;28;20442;-72
2024/02/15 05:42:58;;;;;;;4.80;2.57;;;;;;;10.38;100.00;101208.00;5035588;28;20550;-72
2024/02/15 05:45:34;;;;;;;4.57;2.33;;;;;;;10.39;100.00;101202.28;5036089;28;20514;-72
2024/02/15 05:48:01;;;;;;;4.17;2.33;;;;;;;10.43;100.00;101213.34;5035605;28;20533;-72
2024/02/15 05:50:29;;;;;;;4.10;1.93;;;;;;;10.43;100.00;101213.34;5035402;28;20573;-72
2024/02/15 05:52:58;;;;;;;4.40;2.00;;;;;;;10.45;100.00;101206.56;5035399;28;20474;-72
2024/02/15 05:55:26;;;;;;;3.83;1.77;;;;;;;10.46;100.00;101205.47;5035430;28;20450;-72
2024/02/15 05:57:53;;;;;;;4.73;2.00;;;;;;;10.46;100.00;101212.78;5035091;28;20852;-72
2024/02/15 06:00:20;;;;;;;5.60;2.07;;;;;;;10.47;100.00;101204.38;5035732;28;20440;-72
2024/02/15 06:02:47;;;;;;;3.87;2.20;;;;;;;10.48;100.00;101210.59;5035155;28;21160;-73
2024/02/15 06:05:16;;;;;;;5.10;2.43;;;;;;;10.46;100.00;101207.38;5035054;28;20461;-72
2024/02/15 06:07:43;;;;;;;3.47;1.67;;;;;;;10.45;100.00;101206.56;5035611;28;20505;-72
2024/02/15 06:10:11;;;;;;;5.40;1.97;;;;;;;10.48;100.00;101205.19;5035354;28;20899;-71
2024/02/15 06:12:38;;;;;;;4.13;2.30;;;;;;;10.50;100.00;101206.53;5035001;28;21062;-69
2024/02/15 06:15:13;;;;;;;5.07;2.13;;;;;;;10.48;100.00;101206.00;5035451;28;20509;-71
2024/02/15 06:17:40;;;;;;;3.70;1.77;;;;;;;10.49;100.00;101206.78;5035430;28;20427;-71
2024/02/15 06:20:08;;;;;;;4.20;1.90;;;;;;;10.51;100.00;101210.03;5035009;28;20526;-71
2024/02/15 06:22:35;;;;;;;4.90;2.77;;;;;;;10.50;100.00;101211.94;5035163;28;21142;-71
2024/02/15 06:25:01;;;;;;;3.50;1.90;;;;;;;10.50;100.00;101213.84;5035220;28;20462;-71
2024/02/15 06:27:30;;;;;;;5.00;2.80;;;;;;;10.50;100.00;101208.44;5035537;28;20493;-71
2024/02/15 06:40:54;;;;;;;4.73;1.70;;;;;;;10.59;100.00;101225.69;5024363;28;20462;-71
2024/02/15 06:43:22;;;;;;;3.63;1.83;;;;;;;10.60;100.00;101227.28;5035206;28;20468;-71
2024/02/15 06:45:51;;;;;;;6.33;1.97;;;;;;;10.61;100.00;101231.59;5035109;28;20441;-71
2024/02/15 06:48:17;;;;;;;4.87;2.50;;;;;;;10.61;100.00;101228.91;5034934;28;20622;-71
2024/02/15 06:50:44;;;;;;;5.27;3.03;;;;;;;10.61;100.00;101234.31;5035025;28;20523;-72
2024/02/15 06:53:10;;;;;;;4.10;2.17;;;;;;;10.62;100.00;101227.81;5034848;28;20461;-71
2024/02/15 06:55:39;;;;;;;5.97;2.87;;;;;;;10.64;100.00;101246.50;5034707;28;20439;-70
2024/02/15 06:58:06;;;;;;;3.10;1.50;;;;;;;10.67;100.00;101248.63;5035081;28;20533;-70
2024/02/15 07:00:34;;;;;;;4.57;2.20;;;;;;;10.71;100.00;101242.34;5034594;28;20435;-70
2024/02/15 07:03:01;;;;;;;4.67;2.90;;;;;;;10.68;100.00;101247.53;5034818;28;20463;-70
2024/02/15 07:05:28;;;;;;;5.20;2.33;;;;;;;10.70;100.00;101245.34;5034566;28;20496;-70
2024/02/15 07:07:55;;;;;;;4.60;2.40;;;;;;;10.74;100.00;101251.81;5034430;28;20470;-70
2024/02/15 07:10:22;;;;;;;4.13;1.93;;;;;;;10.75;100.00;101258.84;5034645;28;20505;-70
2024/02/15 07:12:49;;;;;;;3.53;1.73;;;;;;;10.75;100.00;101248.00;5034123;28;20467;-70
2024/02/15 07:15:17;;;;;;;5.27;2.10;;;;;;;10.76;100.00;101249.63;5034391;28;20486;-70
2024/02/15 07:17:45;;;;;;;3.90;1.90;;;;;;;10.72;100.00;101248.59;5034187;28;20522;-70
2024/02/15 07:20:17;;;;;;;3.60;2.13;;;;;;;10.77;100.00;101254.75;5034302;28;20439;-70
2024/02/15 07:22:45;;;;;;;3.73;1.90;;;;;;;10.74;100.00;101246.38;5034182;28;20462;-70
2024/02/15 07:25:11;;;;;;;4.80;2.23;;;;;;;10.78;100.00;101242.81;5034398;28;20449;-70
2024/02/15 07:27:38;;;;;;;4.70;1.90;;;;;;;10.77;100.00;101238.50;5034102;28;20483;-70
2024/02/15 07:30:08;;;;;;;4.03;2.00;;;;;;;10.83;100.00;101244.69;5033742;28;20878;-70
2024/02/15 07:32:35;;;;;;;3.53;1.70;;;;;;;10.90;100.00;101245.16;5033738;28;20463;-70
2024/02/15 07:35:05;;;;;;;3.90;1.97;;;;;;;10.92;100.00;101247.56;5033989;28;20444;-70
2024/02/15 07:37:32;;;;;;;4.20;1.90;;;;;;;10.95;100.00;101242.38;5033709;28;20440;-70
2024/02/15 07:39:59;;;;;;;5.60;2.97;;;;;;;10.95;100.00;101242.38;5033814;28;20508;-70
2024/02/15 07:42:25;;;;;;;3.67;1.97;;;;;;;11.01;100.00;101246.66;5034002;28;20629;-70
2024/02/15 07:44:53;;;;;;;5.10;2.40;;;;;;;11.04;100.00;101250.69;5034137;28;20449;-70
2024/02/15 07:47:23;;;;;;;3.50;1.90;;;;;;;11.06;100.00;101246.59;5033749;28;20439;-70
2024/02/15 07:49:50;;;;;;;4.77;2.07;;;;;;;11.11;100.00;101241.13;5034405;28;20431;-70
2024/02/15 07:52:18;;;;;;;4.57;2.30;;;;;;;11.10;100.00;101242.22;5033902;28;20541;-70
2024/02/15 07:54:46;;;;;;;4.07;1.97;;;;;;;11.14;100.00;101242.44;5033976;28;20486;-70
2024/02/15 07:57:14;;;;;;;12.60;2.73;;;;;;;11.20;100.00;101248.63;5033659;28;20477;-70
2024/02/15 07:59:40;;;;;;;5.83;2.83;;;;;;;11.25;100.00;101254.81;5033253;28;20497;-70
2024/02/15 08:02:07;;;;;;;5.10;2.50;;;;;;;11.26;100.00;101253.72;5033862;28;20455;-70
2024/02/15 08:04:39;;;;;;;4.73;2.20;;;;;;;11.29;100.00;101253.13;5033564;28;20605;-70
2024/02/15 08:07:10;;;;;;;4.40;2.40;;;;;;;11.31;100.00;101250.13;5033859;28;20857;-70
2024/02/15 08:09:38;;;;;;;3.73;1.63;;;;;;;11.30;100.00;101254.75;5033829;28;20447;-71
2024/02/15 08:12:05;;;;;;;5.57;2.30;;;;;;;11.35;100.00;101262.81;5033494;28;20487;-71
2024/02/15 08:14:32;;;;;;;3.30;1.40;;;;;;;11.40;100.00;101253.81;5033437;28;20534;-71
2024/02/15 08:16:58;;;;;;;5.73;2.50;;;;;;;11.35;100.00;101257.41;5033759;28;20546;-71
2024/02/15 08:19:28;;;;;;;3.80;1.77;;;;;;;11.41;100.00;101254.63;5033713;28;20514;-70
2024/02/15 08:21:56;;;;;;;4.03;1.97;;;;;;;11.45;100.00;101261.88;5033948;28;20459;-70
2024/02/15 08:24:22;;;;;;;4.00;1.63;;;;;;;11.40;100.00;101264.66;5034018;28;20496;-70
2024/02/15 08:26:52;;;;;;;3.87;1.87;;;;;;;11.43;100.00;101269.50;5033332;28;20454;-70
2024/02/15 08:29:19;;;;;;;6.80;2.47;;;;;;;11.45;100.00;101261.06;5033656;28;20470;-70
2024/02/15 08:31:46;;;;;;;3.17;1.63;;;;;;;11.45;100.00;101270.03;5033556;28;20967;-70
2024/02/15 08:34:14;;;;;;;4.93;2.10;;;;;;;11.47;100.00;101261.63;5033257;28;20924;-70
2024/02/15 08:36:41;;;;;;;3.40;2.10;;;;;;;11.46;100.00;101257.25;5033225;28;20505;-69
2024/02/15 08:39:11;;;;;;;3.93;2.03;;;;;;;11.45;100.00;101255.66;5033274;28;20535;-69
2024/02/15 08:41:38;;;;;;;4.40;2.27;;;;;;;11.50;100.00;101252.88;5033075;28;20888;-70
2024/02/15 08:44:11;;;;;;;3.83;1.83;;;;;;;11.53;100.00;101253.09;5033195;28;20450;-70
2024/02/15 08:46:38;;;;;;;3.90;1.80;;;;;;;11.58;100.00;101257.66;5033181;28;20765;-70
2024/02/15 08:49:04;;;;;;;5.17;1.43;;;;;;;11.66;100.00;101256.22;5033401;28;20432;-71
2024/02/15 08:51:32;;;;;;;3.17;1.90;;;;;;;11.70;100.00;101252.63;5036063;28;20525;-72
2024/02/15 08:53:59;;;;;;;3.73;1.93;;;;;;;11.75;100.00;101249.84;5036926;28;20474;-73
2024/02/15 08:56:26;;;;;;;5.23;2.43;;;;;;;11.78;100.00;101259.31;5037116;28;20450;-73
2024/02/15 08:58:53;;;;;;;4.73;2.10;;;;;;;11.83;100.00;101251.94;5037565;28;20470;-72
2024/02/15 09:01:21;;;;;;;4.00;2.37;;;;;;;11.90;100.00;101254.25;5036628;28;20530;-73
2024/02/15 09:03:47;;;;;;;5.73;2.37;;;;;;;11.94;100.00;101251.78;5036682;28;20541;-72
2024/02/15 09:06:14;;;;;;;3.40;1.50;;;;;;;11.97;100.00;101262.06;5036433;28;20478;-73
2024/02/15 09:08:41;;;;;;;6.20;1.87;;;;;;;11.99;100.00;101251.69;5037562;28;20458;-70
2024/02/15 09:11:12;;;;;;;4.30;1.83;;;;;;;12.02;100.00;101272.84;5036643;28;20514;-70
2024/02/15 09:13:38;;;;;;;4.17;1.90;;;;;;;12.02;100.00;101265.50;5036518;28;20471;-71
2024/02/15 09:16:05;;;;;;;3.30;1.73;;;;;;;12.01;100.00;101263.09;5036570;28;20455;-70
2024/02/15 09:18:34;;;;;;;4.00;1.80;;;;;;;11.99;100.00;101268.78;5037038;28;20470;-70
2024/02/15 09:21:00;;;;;;;3.90;2.17;;;;;;;12.00;100.00;101269.63;5037163;28;20435;-70
2024/02/15 09:23:27;;;;;;;5.03;2.27;;;;;;;12.00;100.00;101267.72;5036318;28;20459;-71
2024/02/15 09:25:54;;;;;;;4.50;2.00;;;;;;;12.01;100.00;101263.88;5036675;28;20474;-70
2024/02/15 09:28:21;;;;;;;3.53;1.47;;;;;;;12.05;100.00;101269.53;5036272;28;20439;-71
2024/02/15 09:30:51;;;;;;;5.23;2.30;;;;;;;12.02;100.00;101273.66;5036513;28;20439;-71
2024/02/15 09:33:19;;;;;;;5.00;2.27;;;;;;;12.01;100.00;101268.50;5035835;28;20463;-71
2024/02/15 09:35:47;;;;;;;3.83;1.70;;;;;;;11.97;100.00;101267.50;5035935;28;20530;-70
2024/02/15 09:38:16;;;;;;;3.43;1.80;;;;;;;12.01;100.00;101277.47;5036172;28;20443;-70
2024/02/15 09:40:43;;;;;;;3.90;1.83;;;;;;;12.06;100.00;101274.66;5036041;28;20442;-70
2024/02/15 09:43:13;;;;;;;5.13;2.13;;;;;;;12.14;100.00;101281.34;5035995;28;20455;-70
2024/02/15 09:45:40;;;;;;;4.80;1.70;;;;;;;12.22;100.00;101279.88;5035969;28;20534;-73
2024/02/15 09:48:08;;;;;;;3.80;1.70;;;;;;;12.29;100.00;101272.97;5035927;28;20530;-69
2024/02/15 09:50:35;;;;;;;3.20;1.63;;;;;;;12.44;100.00;101271.94;5035563;28;20534;-72
2024/02/15 09:53:06;;;;;;;5.50;2.33;;;;;;;12.57;100.00;101282.03;5036029;28;20483;-72
2024/02/15 09:55:35;;;;;;;4.40;1.43;;;;;;;12.66;100.00;101284.91;5035813;28;20772;-70
2024/02/15 09:58:04;;;;;;;3.03;1.13;;;;;;;12.71;100.00;101281.28;5035529;28;20927;-70
2024/02/15 10:00:31;;;;;;;3.60;1.43;;;;;;;12.77;100.00;101288.22;5034944;28;20446;-70
2024/02/15 10:03:01;;;;;;;4.80;1.87;;;;;;;12.80;100.00;101284.94;5035560;28;20451;-70
2024/02/15 10:05:28;;;;;;;3.97;1.47;;;;;;;12.80;100.00;101288.44;5035747;28;20522;-70
2024/02/15 10:07:54;;;;;;;3.63;1.40;;;;;;;12.76;100.00;101287.44;5035985;28;20525;-70
2024/02/15 10:10:25;;;;;;;3.50;1.83;;;;;;;12.77;100.00;101280.88;5035842;28;20541;-70
2024/02/15 10:12:54;;;;;;;3.47;1.50;;;;;;;12.85;100.00;101282.13;5035029;28;20502;-71
2024/02/15 10:15:33;;;;;;;2.83;1.17;;;;;;;12.90;100.00;101278.50;5035492;28;20447;-70
2024/02/15 10:18:00;;;;;;;6.83;2.50;;;;;;;12.93;100.00;101284.16;5035758;28;20431;-70
2024/02/15 10:20:27;;;;;;;3.30;1.47;;;;;;;12.97;100.00;101296.03;5035320;28;20444;-71
2024/02/15 10:23:09;;;;;;;4.10;1.83;;;;;;;13.09;100.00;101295.53;5035685;28;20486;-70
2024/02/15 10:25:38;;;;;;;3.27;1.20;;;;;;;13.24;100.00;101289.06;5035262;28;20470;-70
2024/02/15 10:28:06;;;;;;;3.30;1.27;;;;;;;13.25;100.00;101286.03;5034834;28;20462;-71
2024/02/15 10:30:34;;;;;;;2.40;1.00;;;;;;;13.26;100.00;101290.34;5035186;28;20485;-71
2024/02/15 10:33:01;;;;;;;4.13;1.60;;;;;;;13.23;100.00;101284.69;5035129;28;20582;-70
2024/02/15 10:35:29;;;;;;;3.10;1.20;;;;;;;13.27;100.00;101278.34;5035041;28;20523;-71
2024/02/15 10:38:09;;;;;;;2.40;1.20;;;;;;;13.30;100.00;101280.47;5035020;28;20468;-71
2024/02/15 10:40:38;;;;;;;3.00;1.20;;;;;;;13.38;100.00;101285.22;5035030;28;20485;-71
2024/02/15 10:43:06;;;;;;;2.37;1.00;;;;;;;13.46;100.00;101280.16;5034689;28;20826;-71
2024/02/15 10:45:34;;;;;;;3.10;1.23;;;;;;;13.46;100.00;101278.28;5034594;28;20782;-71
2024/02/15 10:48:01;;;;;;;2.40;1.10;;;;;;;13.51;100.00;101294.50;5035238;28;20498;-71
2024/02/15 10:50:27;;;;;;;4.17;1.50;;;;;;;13.55;100.00;101286.53;5035013;28;20522;-71
2024/02/15 10:52:56;;;;;;;2.23;0.83;;;;;;;13.49;100.00;101277.66;5034337;28;21083;-71
2024/02/15 10:55:38;;;;;;;2.87;1.47;;;;;;;13.49;100.00;101285.00;5034989;28;20466;-71
2024/02/15 10:58:07;;;;;;;3.30;1.43;;;;;;;13.50;100.00;101287.44;5034988;28;20511;-70
2024/02/15 11:00:37;;;;;;;2.13;1.00;;;;;;;13.48;100.00;101284.22;5034584;28;20450;-71
2024/02/15 11:03:06;;;;;;;2.83;1.30;;;;;;;13.47;100.00;101282.59;5034789;28;20459;-71
2024/02/15 11:05:35;;;;;;;2.83;1.27;;;;;;;13.46;100.00;101272.84;5034407;28;20443;-71
2024/02/15 11:08:04;;;;;;;2.83;0.90;;;;;;;13.54;100.00;101277.53;5034318;28;20951;-71
2024/02/15 11:10:32;;;;;;;2.40;0.93;;;;;;;13.69;100.00;101279.16;5034405;28;20470;-71
2024/02/15 11:13:00;;;;;;;2.27;1.00;;;;;;;13.76;100.00;101276.00;5033255;28;20888;-71
2024/02/15 11:15:51;;;;;;;2.70;1.43;;;;;;;13.76;100.00;101273.28;5034815;28;20445;-71
2024/02/15 11:18:48;;;;;;;2.77;1.00;;;;;;;13.70;100.00;101267.16;5034668;28;20428;-71
2024/02/15 11:21:16;;;;;;;4.30;1.63;;;;;;;13.66;100.00;101262.63;5034092;28;20458;-72
2024/02/15 11:23:44;;;;;;;2.77;1.00;;;;;;;13.67;100.00;101259.56;5033723;28;20459;-71
2024/02/15 11:26:31;;;;;;;3.20;1.40;;;;;;;13.72;100.00;101273.06;5034306;28;20450;-72
2024/02/15 11:28:58;;;;;;;3.33;1.37;;;;;;;13.73;100.00;101263.03;5033970;28;20475;-70
2024/02/15 11:31:56;;;;;;;3.50;1.00;;;;;;;13.66;100.00;101271.59;5033956;28;20446;-71
2024/02/15 11:35:09;;;;;;;3.13;1.00;;;;;;;13.62;100.00;101278.75;5033291;28;20562;-71